Time;durP1;ratioP1;P1;durP2;ratioP2;P2;SDS_P1;SDS_P2;PMS_P1;PMS_P2;Temp;Humidity;BMP_temperature;BMP_pressure;BME280_temperature;BME280_humidity;BME280_pressure;Samples;Min_cycle;Max_cycle;Signal;HPM_P1;HPM_P2
2021/11/16 00:01:27;;;;;;;74.13;34.17;;;;;;;4.99;100.00;102569.22;2611520;36;20189;-70
2021/11/16 00:03:57;;;;;;;68.03;33.17;;;;;;;4.97;100.00;102564.84;2611341;36;20081;-70
2021/11/16 00:06:27;;;;;;;73.70;34.17;;;;;;;5.05;100.00;102560.06;2611980;36;20041;-70
2021/11/16 00:08:56;;;;;;;80.10;36.33;;;;;;;4.95;100.00;102558.69;2612135;36;20560;-69
2021/11/16 00:11:24;;;;;;;78.43;34.45;;;;;;;4.97;100.00;102560.38;2611602;31;20042;-70
2021/11/16 00:13:52;;;;;;;73.65;33.25;;;;;;;4.95;100.00;102558.69;2611249;36;20154;-70
2021/11/16 00:16:21;;;;;;;73.90;33.88;;;;;;;4.99;100.00;102557.63;2611166;31;20141;-70
2021/11/16 00:18:58;;;;;;;73.25;33.35;;;;;;;5.04;100.00;102558.34;2611124;36;20053;-69
2021/11/16 00:21:29;;;;;;;75.55;33.33;;;;;;;5.00;100.00;102556.72;2611779;36;20036;-70
2021/11/16 00:24:07;;;;;;;77.70;33.55;;;;;;;5.07;100.00;102560.91;2611572;36;20558;-71
2021/11/16 00:26:35;;;;;;;65.25;31.48;;;;;;;5.06;100.00;102545.81;2611750;36;20030;-69
2021/11/16 00:29:03;;;;;;;75.75;34.50;;;;;;;5.24;100.00;102542.44;2611357;36;20113;-70
2021/11/16 00:31:32;;;;;;;81.20;34.88;;;;;;;5.05;100.00;102541.38;2611200;36;20566;-70
2021/11/16 00:34:01;;;;;;;73.13;35.40;;;;;;;5.05;100.00;102530.72;2611868;36;20596;-68
2021/11/16 00:36:32;;;;;;;76.35;33.58;;;;;;;5.06;100.00;102540.47;2611631;36;20097;-71
2021/11/16 00:39:02;;;;;;;80.20;33.78;;;;;;;5.07;100.00;102534.22;2611907;36;20427;-70
2021/11/16 00:41:30;;;;;;;75.78;33.42;;;;;;;5.06;100.00;102532.47;2611661;36;20035;-68
2021/11/16 00:43:59;;;;;;;73.63;33.17;;;;;;;5.03;100.00;102529.91;2611836;36;20557;-68
2021/11/16 00:46:27;;;;;;;71.25;32.20;;;;;;;5.16;100.00;102533.84;2611168;36;20303;-69
2021/11/16 00:48:55;;;;;;;73.72;34.13;;;;;;;5.03;100.00;102537.91;2611310;36;20121;-69
2021/11/16 00:51:23;;;;;;;76.85;34.13;;;;;;;5.04;100.00;102529.00;2611650;36;20126;-70
2021/11/16 00:53:54;;;;;;;70.60;32.97;;;;;;;5.01;100.00;102531.78;2611997;36;20446;-69
2021/11/16 00:56:23;;;;;;;78.15;34.05;;;;;;;4.94;100.00;102531.13;2611188;31;20145;-69
2021/11/16 00:58:51;;;;;;;70.43;33.55;;;;;;;4.96;100.00;102520.41;2611412;36;20037;-69
2021/11/16 01:01:19;;;;;;;77.32;35.38;;;;;;;5.12;100.00;102518.88;2611123;36;21673;-70
2021/11/16 01:03:48;;;;;;;67.70;31.85;;;;;;;5.21;100.00;102518.53;2611448;36;20562;-70
2021/11/16 01:06:16;;;;;;;75.82;33.72;;;;;;;5.31;100.00;102518.16;2610975;36;20031;-69
2021/11/16 01:08:44;;;;;;;73.30;33.28;;;;;;;5.30;100.00;102511.06;2611812;31;20167;-69
2021/11/16 01:11:15;;;;;;;67.93;32.17;;;;;;;5.28;100.00;102503.13;2611033;36;20133;-70
2021/11/16 01:13:44;;;;;;;64.60;31.20;;;;;;;5.22;100.00;102511.38;2611364;36;20031;-71
2021/11/16 01:16:14;;;;;;;75.55;33.75;;;;;;;5.26;100.00;102513.88;2610569;36;20534;-70
2021/11/16 01:18:42;;;;;;;74.72;31.90;;;;;;;5.15;100.00;102516.09;2610856;31;20561;-71
2021/11/16 01:21:11;;;;;;;66.68;30.58;;;;;;;5.18;100.00;102504.41;2611366;36;20130;-68
2021/11/16 01:23:39;;;;;;;66.27;31.60;;;;;;;5.17;100.00;102505.38;2611285;36;20085;-69
2021/11/16 01:26:08;;;;;;;71.03;31.08;;;;;;;5.07;100.00;102505.72;2610632;36;20030;-69
2021/11/16 01:28:39;;;;;;;70.70;31.52;;;;;;;5.03;100.00;102504.09;2611835;36;20435;-70
2021/11/16 01:31:07;;;;;;;73.93;32.78;;;;;;;4.97;100.00;102500.81;2611309;36;20197;-70
2021/11/16 01:33:44;;;;;;;71.18;32.58;;;;;;;5.04;100.00;102503.16;2610925;36;20605;-68
2021/11/16 01:36:15;;;;;;;74.95;32.83;;;;;;;5.14;100.00;102506.34;2611137;36;20030;-70
2021/11/16 01:38:44;;;;;;;72.40;32.22;;;;;;;5.01;100.00;102505.09;2611020;36;20153;-70
2021/11/16 01:41:15;;;;;;;72.57;32.65;;;;;;;5.13;100.00;102501.94;2610923;36;20065;-68
2021/11/16 01:43:46;;;;;;;70.75;32.38;;;;;;;4.92;100.00;102511.66;2611447;36;20030;-69
2021/11/16 01:46:17;;;;;;;80.53;32.35;;;;;;;4.96;100.00;102507.06;2611271;36;20161;-70
2021/11/16 01:48:49;;;;;;;73.00;31.88;;;;;;;5.07;100.00;102504.84;2610793;36;20691;-70
2021/11/16 01:54:01;;;;;;;77.65;34.03;;;;;;;5.03;100.00;102497.91;2610796;36;20061;-70
2021/11/16 01:56:31;;;;;;;68.45;32.53;;;;;;;5.14;100.00;102497.47;2610936;36;20551;-69
2021/11/16 01:59:04;;;;;;;74.80;32.88;;;;;;;5.03;100.00;102493.41;2611095;36;20540;-70
2021/11/16 02:01:34;;;;;;;70.68;33.33;;;;;;;4.85;100.00;102495.00;2612160;36;20200;-70
2021/11/16 02:04:04;;;;;;;81.32;33.50;;;;;;;4.77;100.00;102497.09;2612044;36;20202;-69
2021/11/16 02:06:39;;;;;;;70.68;32.28;;;;;;;4.93;100.00;102496.50;2612816;31;20450;-71
2021/11/16 02:09:11;;;;;;;76.25;34.38;;;;;;;4.96;100.00;102491.06;2611860;36;20122;-72
2021/11/16 02:11:40;;;;;;;71.43;32.70;;;;;;;4.91;100.00;102492.09;2612243;36;20540;-69
2021/11/16 02:14:13;;;;;;;74.72;33.35;;;;;;;4.89;100.00;102491.28;2612591;36;20174;-70
2021/11/16 02:16:42;;;;;;;76.53;34.00;;;;;;;4.95;100.00;102489.31;2612466;36;20382;-71
2021/11/16 02:19:13;;;;;;;74.27;34.07;;;;;;;5.01;100.00;102478.41;2612173;36;20030;-71
2021/11/16 02:21:44;;;;;;;67.07;30.13;;;;;;;5.12;100.00;102486.84;2612305;36;20146;-71
2021/11/16 02:24:12;;;;;;;75.43;33.58;;;;;;;5.18;100.00;102475.06;2611989;36;20137;-70
2021/11/16 02:26:41;;;;;;;70.60;33.33;;;;;;;5.05;100.00;102472.91;2612715;36;20549;-69
2021/11/16 02:29:10;;;;;;;76.05;33.33;;;;;;;5.01;100.00;102478.41;2612438;36;20085;-70
2021/11/16 02:31:38;;;;;;;;;;;;;;;4.95;100.00;102481.28;2612300;36;20134;-70
2021/11/16 02:39:24;;;;;;;77.03;33.38;;;;;;;4.78;100.00;102468.63;2611583;36;20038;-70
2021/11/16 02:41:55;;;;;;;78.53;33.25;;;;;;;4.75;100.00;102472.28;2612398;36;20193;-69
2021/11/16 02:44:25;;;;;;;73.15;33.47;;;;;;;4.89;100.00;102475.28;2612188;36;21933;-69
2021/11/16 02:46:54;;;;;;;79.32;34.03;;;;;;;5.05;100.00;102456.88;2612007;36;20065;-71
2021/11/16 02:49:23;;;;;;;74.68;32.55;;;;;;;5.12;100.00;102464.63;2612367;36;20069;-71
2021/11/16 02:54:23;;;;;;;76.65;33.00;;;;;;;4.86;100.00;102470.06;2611635;36;20571;-70
2021/11/16 02:56:52;;;;;;;78.93;33.92;;;;;;;4.77;100.00;102459.75;2612873;36;20458;-71
2021/11/16 02:59:20;;;;;;;78.60;33.33;;;;;;;4.90;100.00;102455.69;2612370;36;20129;-70
2021/11/16 03:01:51;;;;;;;73.47;32.95;;;;;;;4.93;100.00;102453.81;2612082;31;20065;-70
2021/11/16 03:04:24;;;;;;;81.22;33.25;;;;;;;4.91;100.00;102456.56;2612042;36;20049;-70
2021/11/16 03:06:52;;;;;;;74.93;31.30;;;;;;;4.91;100.00;102451.22;2612453;36;20181;-69
2021/11/16 03:09:23;;;;;;;80.80;35.00;;;;;;;4.86;100.00;102454.06;2612062;36;20030;-69
2021/11/16 03:11:51;;;;;;;76.38;32.40;;;;;;;4.93;100.00;102452.00;2612953;31;20435;-68
2021/11/16 03:14:20;;;;;;;75.20;32.13;;;;;;;4.97;100.00;102455.44;2611921;36;20118;-69
2021/11/16 03:16:49;;;;;;;75.90;32.67;;;;;;;4.91;100.00;102457.41;2612004;36;20073;-70
2021/11/16 03:19:18;;;;;;;76.93;31.15;;;;;;;4.98;100.00;102454.53;2611814;36;20045;-68
2021/11/16 03:21:54;;;;;;;71.40;30.50;;;;;;;5.03;100.00;102455.19;2612220;31;20557;-68
2021/11/16 03:24:27;;;;;;;68.55;29.85;;;;;;;5.05;100.00;102453.31;2611455;36;20031;-70
2021/11/16 03:26:55;;;;;;;73.60;31.10;;;;;;;5.03;100.00;102456.06;2612136;36;20057;-71
2021/11/16 03:29:26;;;;;;;74.90;32.00;;;;;;;5.05;100.00;102464.88;2612194;36;20158;-71
2021/11/16 03:32:04;;;;;;;71.60;31.70;;;;;;;4.88;100.00;102462.88;2611958;31;20298;-69
2021/11/16 03:34:32;;;;;;;74.88;32.35;;;;;;;4.78;100.00;102456.16;2612130;36;20035;-69
2021/11/16 03:37:00;;;;;;;79.28;32.35;;;;;;;4.75;100.00;102450.94;2612021;36;20583;-68
2021/11/16 03:39:32;;;;;;;77.35;32.13;;;;;;;4.89;100.00;102447.75;2611554;36;20030;-68
2021/11/16 03:42:01;;;;;;;71.80;31.58;;;;;;;4.98;100.00;102449.19;2612441;36;20065;-68
2021/11/16 03:44:29;;;;;;;73.85;31.73;;;;;;;4.91;100.00;102452.06;2613635;36;20058;-68
2021/11/16 03:47:06;;;;;;;74.68;31.52;;;;;;;4.81;100.00;102448.03;2612063;36;20189;-69
2021/11/16 03:49:35;;;;;;;78.82;34.03;;;;;;;4.75;100.00;102445.59;2611897;31;20053;-69
2021/11/16 03:52:03;;;;;;;73.93;30.58;;;;;;;4.75;100.00;102440.25;2611714;36;20443;-72
2021/11/16 03:54:34;;;;;;;80.53;32.75;;;;;;;4.78;100.00;102444.63;2611663;36;20073;-69
2021/11/16 03:57:02;;;;;;;73.15;32.00;;;;;;;4.79;100.00;102441.88;2612024;31;20042;-69
2021/11/16 03:59:32;;;;;;;78.05;33.00;;;;;;;4.97;100.00;102442.09;2612710;36;20461;-70
2021/11/16 04:02:01;;;;;;;77.03;33.33;;;;;;;4.82;100.00;102441.75;2612395;36;20447;-69
2021/11/16 04:04:29;;;;;;;74.80;32.72;;;;;;;5.02;100.00;102442.78;2611906;36;20097;-68
2021/11/16 04:06:57;;;;;;;74.97;33.57;;;;;;;4.97;100.00;102450.09;2612074;36;20034;-70
2021/11/16 04:09:26;;;;;;;78.45;33.20;;;;;;;4.78;100.00;102458.81;2611882;36;20526;-71
2021/11/16 04:11:57;;;;;;;78.88;34.90;;;;;;;4.80;100.00;102459.66;2612295;36;22046;-69
2021/11/16 04:14:25;;;;;;;79.10;32.65;;;;;;;4.66;100.00;102461.97;2612019;36;20164;-67
2021/11/16 04:16:54;;;;;;;76.07;31.20;;;;;;;4.68;100.00;102465.44;2611853;36;20121;-70
2021/11/16 04:19:23;;;;;;;88.10;33.25;;;;;;;4.89;100.00;102464.63;2611692;36;20031;-68
2021/11/16 04:21:51;;;;;;;75.70;31.80;;;;;;;5.04;100.00;102462.28;2611822;36;20125;-68
2021/11/16 04:24:19;;;;;;;79.50;32.78;;;;;;;4.95;100.00;102465.28;2611716;31;20042;-69
2021/11/16 04:26:47;;;;;;;77.63;32.00;;;;;;;5.02;100.00;102459.69;2612611;31;20515;-70
2021/11/16 04:29:18;;;;;;;78.20;31.20;;;;;;;5.09;100.00;102454.94;2611923;36;20118;-69
2021/11/16 04:31:47;;;;;;;68.22;29.40;;;;;;;5.18;100.00;102459.03;2611950;36;20532;-71
2021/11/16 04:34:15;;;;;;;75.18;33.05;;;;;;;5.01;100.00;102452.59;2611937;36;20052;-68
2021/11/16 04:36:44;;;;;;;76.90;32.47;;;;;;;5.06;100.00;102444.41;2611859;36;20130;-69
2021/11/16 04:39:12;;;;;;;72.30;32.22;;;;;;;5.08;100.00;102451.41;2611519;36;20570;-70
2021/11/16 04:41:43;;;;;;;69.93;31.13;;;;;;;5.07;100.00;102456.81;2612137;36;20641;-70
2021/11/16 04:44:11;;;;;;;75.00;32.97;;;;;;;4.95;100.00;102451.94;2611794;36;20034;-68
2021/11/16 04:46:42;;;;;;;80.88;33.47;;;;;;;4.81;100.00;102450.69;2611730;36;20038;-71
2021/11/16 04:49:15;;;;;;;80.10;33.05;;;;;;;4.76;100.00;102458.00;2611647;36;20539;-70
2021/11/16 04:52:06;;;;;;;77.53;32.70;;;;;;;4.56;100.00;102445.44;2611972;36;20544;-69
2021/11/16 04:55:01;;;;;;;80.95;32.22;;;;;;;4.73;100.00;102442.13;2611643;36;20060;-68
2021/11/16 05:02:55;;;;;;;76.40;32.72;;;;;;;4.78;100.00;102452.63;2611796;36;20746;-69
2021/11/16 05:05:24;;;;;;;74.63;31.10;;;;;;;4.89;100.00;102451.28;2612097;36;20601;-71
2021/11/16 05:07:56;;;;;;;75.72;32.25;;;;;;;4.90;100.00;102455.69;2612313;36;20038;-72
2021/11/16 05:10:25;;;;;;;76.20;33.10;;;;;;;4.99;100.00;102451.78;2611445;36;20046;-71
2021/11/16 05:12:55;;;;;;;73.45;32.80;;;;;;;4.90;100.00;102453.03;2611955;36;20057;-71
2021/11/16 05:15:24;;;;;;;74.82;31.58;;;;;;;4.97;100.00;102445.63;2611824;36;20035;-69
2021/11/16 05:17:55;;;;;;;72.85;31.48;;;;;;;5.14;100.00;102454.75;2611642;36;20610;-72
2021/11/16 05:20:24;;;;;;;69.25;31.20;;;;;;;5.19;100.00;102445.63;2611495;31;20037;-70
2021/11/16 05:22:55;;;;;;;77.03;32.08;;;;;;;5.09;100.00;102444.28;2611689;36;20170;-70
2021/11/16 05:25:24;;;;;;;76.50;32.13;;;;;;;5.01;100.00;102441.91;2611696;36;20197;-70
2021/11/16 05:27:52;;;;;;;80.32;31.88;;;;;;;4.97;100.00;102434.09;2611663;36;20061;-69
2021/11/16 05:30:26;;;;;;;80.47;32.33;;;;;;;4.97;100.00;102432.28;2611730;36;20066;-68
2021/11/16 05:32:58;;;;;;;77.88;33.42;;;;;;;5.05;100.00;102439.97;2611478;36;20031;-69
2021/11/16 05:35:26;;;;;;;74.43;32.40;;;;;;;5.16;100.00;102428.88;2612315;36;20042;-69
2021/11/16 05:38:06;;;;;;;77.40;32.25;;;;;;;5.13;100.00;102434.34;2612255;36;20057;-70
2021/11/16 05:40:35;;;;;;;82.93;33.08;;;;;;;5.05;100.00;102426.63;2613058;31;20103;-68
2021/11/16 05:43:04;;;;;;;71.22;31.75;;;;;;;5.07;100.00;102430.13;2612409;36;20928;-69
2021/11/16 05:45:32;;;;;;;79.25;32.30;;;;;;;5.05;100.00;102432.84;2612555;36;20039;-69
2021/11/16 05:48:03;;;;;;;75.97;33.08;;;;;;;5.05;100.00;102437.31;2612358;36;20120;-70
2021/11/16 05:50:32;;;;;;;80.32;31.65;;;;;;;4.98;100.00;102435.84;2612599;36;20721;-70
2021/11/16 05:53:00;;;;;;;85.97;34.25;;;;;;;4.94;100.00;102434.22;2611730;36;20042;-68
2021/11/16 05:55:29;;;;;;;70.32;30.35;;;;;;;4.85;100.00;102425.63;2612097;36;20566;-70
2021/11/16 05:57:58;;;;;;;89.18;34.53;;;;;;;4.80;100.00;102424.97;2612489;36;20053;-69
2021/11/16 06:00:26;;;;;;;80.23;32.43;;;;;;;4.83;100.00;102422.16;2612840;36;20650;-72
2021/11/16 06:02:55;;;;;;;84.63;34.13;;;;;;;4.90;100.00;102426.34;2613351;31;20539;-68
2021/11/16 06:05:26;;;;;;;83.70;33.30;;;;;;;4.97;100.00;102431.44;2612651;31;20030;-70
2021/11/16 06:07:54;;;;;;;79.85;32.65;;;;;;;4.85;100.00;102428.31;2612380;36;20165;-69
2021/11/16 06:10:22;;;;;;;81.45;32.83;;;;;;;4.91;100.00;102425.38;2612167;36;20589;-69
2021/11/16 06:12:51;;;;;;;86.40;33.17;;;;;;;4.83;100.00;102416.84;2612431;36;20165;-68
2021/11/16 06:15:19;;;;;;;82.72;33.25;;;;;;;4.77;100.00;102430.41;2612213;36;20031;-69
2021/11/16 06:17:48;;;;;;;87.32;32.92;;;;;;;4.84;100.00;102425.69;2612212;31;20189;-71
2021/11/16 06:20:20;;;;;;;82.88;34.05;;;;;;;4.99;100.00;102426.88;2611806;36;20030;-70
2021/11/16 06:22:51;;;;;;;84.57;33.35;;;;;;;5.06;100.00;102423.94;2612203;32;20034;-69
2021/11/16 06:25:19;;;;;;;88.00;32.92;;;;;;;5.08;100.00;102423.88;2612170;36;20181;-69
2021/11/16 06:27:47;;;;;;;94.90;34.55;;;;;;;4.97;100.00;102420.75;2612139;36;20035;-69
2021/11/16 06:30:16;;;;;;;79.97;34.35;;;;;;;5.04;100.00;102427.59;2611176;36;20153;-69
2021/11/16 06:32:46;;;;;;;85.43;33.30;;;;;;;5.14;100.00;102425.41;2611825;36;20122;-68
2021/11/16 06:35:35;;;;;;;82.72;35.72;;;;;;;5.13;100.00;102416.53;2612367;36;20630;-69
2021/11/16 06:38:13;;;;;;;93.88;35.08;;;;;;;5.11;100.00;102431.75;2612583;31;20951;-68
2021/11/16 06:40:47;;;;;;;84.75;34.83;;;;;;;5.12;100.00;102422.78;2612541;36;20034;-69
2021/11/16 06:43:22;;;;;;;79.63;32.88;;;;;;;5.18;100.00;102427.91;2612921;36;20455;-67
2021/11/16 06:45:52;;;;;;;83.78;32.65;;;;;;;5.19;100.00;102418.94;2612485;36;20487;-69
2021/11/16 06:48:21;;;;;;;80.80;33.40;;;;;;;5.13;100.00;102419.19;2612144;36;20555;-69
2021/11/16 06:50:50;;;;;;;72.82;31.73;;;;;;;5.23;100.00;102415.22;2612152;36;20037;-68
2021/11/16 06:53:28;;;;;;;82.65;32.88;;;;;;;5.28;100.00;102419.50;2611448;36;20643;-69
2021/11/16 06:56:00;;;;;;;89.20;33.97;;;;;;;5.10;100.00;102424.66;2612256;36;20137;-68
2021/11/16 06:58:29;;;;;;;88.15;34.80;;;;;;;4.93;100.00;102424.47;2611978;36;20145;-68
2021/11/16 07:00:58;;;;;;;82.63;32.90;;;;;;;5.00;100.00;102424.16;2612347;36;20126;-69
2021/11/16 07:03:27;;;;;;;82.22;33.90;;;;;;;5.12;100.00;102422.78;2611773;36;20034;-69
2021/11/16 07:05:57;;;;;;;89.20;33.55;;;;;;;5.12;100.00;102414.78;2612215;31;20062;-69
2021/11/16 07:08:38;;;;;;;85.30;33.92;;;;;;;4.85;100.00;102414.97;2611854;36;20030;-70
2021/11/16 07:11:09;;;;;;;90.68;35.40;;;;;;;4.90;100.00;102423.66;2612174;36;20125;-70
2021/11/16 07:13:38;;;;;;;86.55;34.58;;;;;;;4.88;100.00;102424.66;2612326;36;20446;-68
2021/11/16 07:16:14;;;;;;;84.22;32.75;;;;;;;4.86;100.00;102427.38;2612051;36;20252;-70
2021/11/16 07:18:51;;;;;;;81.40;33.58;;;;;;;4.73;100.00;102421.66;2611709;36;20261;-68
2021/11/16 07:21:21;;;;;;;97.63;34.95;;;;;;;4.69;100.00;102420.03;2611561;36;20554;-70
2021/11/16 07:24:03;;;;;;;91.85;35.33;;;;;;;4.68;100.00;102425.41;2612057;36;20098;-69
2021/11/16 07:26:32;;;;;;;81.25;32.38;;;;;;;4.74;100.00;102425.19;2612321;36;20613;-70
2021/11/16 07:29:01;;;;;;;78.95;32.42;;;;;;;4.96;100.00;102427.00;2611968;31;20031;-71
2021/11/16 07:31:29;;;;;;;91.90;32.78;;;;;;;4.97;100.00;102426.94;2611981;36;20149;-71
2021/11/16 07:34:01;;;;;;;89.20;35.17;;;;;;;4.83;100.00;102422.16;2612352;31;20446;-69
2021/11/16 07:36:29;;;;;;;88.22;33.97;;;;;;;4.95;100.00;102427.94;2612489;36;20668;-70
2021/11/16 07:39:08;;;;;;;89.75;36.25;;;;;;;5.02;100.00;102426.75;2611565;36;20149;-69
2021/11/16 07:41:36;;;;;;;87.85;34.58;;;;;;;5.09;100.00;102429.16;2612075;31;20061;-70
2021/11/16 07:44:13;;;;;;;88.30;33.83;;;;;;;4.97;100.00;102428.75;2611892;36;20165;-69
2021/11/16 07:46:53;;;;;;;95.03;35.55;;;;;;;4.90;100.00;102423.66;2609974;36;20054;-70
2021/11/16 07:49:21;;;;;;;;;;;;;;;4.95;100.00;102425.25;2611730;36;20031;-70
2021/11/16 08:04:01;;;;;;;91.50;34.45;;;;;;;5.01;100.00;102414.38;2610047;36;20424;-70
2021/11/16 08:06:38;;;;;;;95.47;34.78;;;;;;;4.94;100.00;102423.53;2627343;31;20423;-70
2021/11/16 08:09:18;;;;;;;89.22;34.75;;;;;;;4.88;100.00;102414.84;2628607;36;20030;-70
2021/11/16 08:11:50;;;;;;;92.97;33.45;;;;;;;4.88;100.00;102409.50;2611490;36;20067;-70
2021/11/16 08:14:42;;;;;;;97.53;33.97;;;;;;;4.83;100.00;102419.50;2609378;36;20038;-70
2021/11/16 08:17:16;;;;;;;93.32;33.10;;;;;;;4.93;100.00;102427.13;2610992;36;20077;-70
2021/11/16 08:19:48;;;;;;;88.03;34.25;;;;;;;4.94;100.00;102424.41;2611238;36;20076;-70
2021/11/16 08:22:19;;;;;;;87.95;32.80;;;;;;;5.00;100.00;102420.63;2611223;36;20034;-70
2021/11/16 08:25:04;;;;;;;91.50;34.67;;;;;;;4.98;100.00;102425.16;2611612;36;20487;-71
2021/11/16 08:27:36;;;;;;;87.55;33.42;;;;;;;4.99;100.00;102426.88;2611038;36;20137;-70
2021/11/16 08:30:09;;;;;;;93.13;33.72;;;;;;;5.01;100.00;102423.22;2610752;31;20543;-69
2021/11/16 08:33:05;;;;;;;90.93;34.75;;;;;;;4.93;100.00;102424.47;2610584;36;20170;-69
2021/11/16 08:35:35;;;;;;;90.88;33.40;;;;;;;4.93;100.00;102421.81;2611190;36;20662;-70
2021/11/16 08:38:11;;;;;;;89.05;33.50;;;;;;;4.94;100.00;102412.88;2611170;36;20030;-71
2021/11/16 08:40:45;;;;;;;86.22;33.00;;;;;;;4.81;100.00;102416.00;2627935;31;20399;-71
2021/11/16 08:43:35;;;;;;;92.43;33.70;;;;;;;4.79;100.00;102415.22;2611214;36;20030;-70
2021/11/16 08:46:10;;;;;;;104.00;36.53;;;;;;;4.82;100.00;102412.41;2610866;36;20053;-70
2021/11/16 08:48:47;;;;;;;91.40;32.85;;;;;;;4.87;100.00;102417.56;2610354;36;20578;-70
2021/11/16 08:51:19;;;;;;;94.20;33.83;;;;;;;4.96;100.00;102416.34;2611865;36;20042;-71
2021/11/16 08:53:48;;;;;;;94.47;35.22;;;;;;;4.91;100.00;102412.03;2610848;36;20050;-70
2021/11/16 09:11:02;;;;;;;84.60;32.55;;;;;;;4.82;100.00;102400.91;2610112;36;20494;-71
2021/11/16 09:16:30;;;;;;;84.15;30.65;;;;;;;4.90;100.00;102398.78;2610206;31;20553;-72
2021/11/16 09:25:26;;;;;;;90.28;32.38;;;;;;;4.75;100.00;102394.91;2609539;36;20603;-70
2021/11/16 09:37:48;;;;;;;88.35;29.25;;;;;;;4.60;100.00;102377.72;2609893;36;20042;-69
2021/11/16 09:40:45;;;;;;;85.90;29.80;;;;;;;4.69;100.00;102380.03;2610088;36;20034;-70
2021/11/16 09:44:11;;;;;;;85.38;31.20;;;;;;;4.71;100.00;102374.63;2611739;36;20030;-69
2021/11/16 09:50:14;;;;;;;85.55;29.85;;;;;;;4.64;100.00;102379.34;2609769;36;20037;-71
2021/11/16 09:53:16;;;;;;;91.25;31.42;;;;;;;4.71;100.00;102379.97;2610053;36;20077;-70
2021/11/16 09:55:47;;;;;;;79.38;29.35;;;;;;;4.77;100.00;102374.41;2609955;36;20034;-69
2021/11/16 10:13:16;;;;;;;90.63;30.48;;;;;;;4.44;100.00;102377.44;2628491;36;20049;-69
2021/11/16 10:15:49;;;;;;;88.88;28.55;;;;;;;4.63;100.00;102377.59;2611555;36;21053;-69
2021/11/16 10:18:31;;;;;;;71.47;26.75;;;;;;;4.63;100.00;102369.59;2610732;31;20058;-70
2021/11/16 10:21:07;;;;;;;80.30;28.30;;;;;;;4.62;100.00;102370.53;2611635;36;20074;-71
2021/11/16 10:29:31;;;;;;;86.05;28.50;;;;;;;4.62;100.00;102367.00;2609619;36;20038;-71
2021/11/16 10:32:00;;;;;;;82.88;28.15;;;;;;;4.65;100.00;102370.44;2629047;36;20602;-70
2021/11/16 10:47:19;;;;;;;80.43;27.77;;;;;;;4.85;100.00;102360.75;2609195;36;20591;-69
2021/11/16 10:50:12;;;;;;;77.03;27.05;;;;;;;4.92;100.00;102348.91;2609396;36;20117;-71
2021/11/16 11:20:21;;;;;;;59.67;23.75;;;;;;;4.69;100.00;102328.50;2613708;31;20037;-71
2021/11/16 11:30:03;;;;;;;59.08;21.42;;;;;;;4.76;100.00;102307.78;2632004;36;20126;-71
2021/11/16 11:42:58;;;;;;;60.88;22.60;;;;;;;4.75;100.00;102309.56;2613123;36;20046;-71
2021/11/16 11:48:34;;;;;;;62.70;23.83;;;;;;;4.70;100.00;102293.75;2612734;36;20542;-70
2021/11/16 11:51:29;;;;;;;67.45;25.40;;;;;;;4.67;100.00;102287.69;2612691;36;20160;-71
2021/11/16 11:54:02;;;;;;;68.32;25.67;;;;;;;4.61;100.00;102293.25;2614433;54;20066;-71
2021/11/16 12:05:55;;;;;;;80.70;29.15;;;;;;;4.57;100.00;102279.19;2613604;46;20010;-71
2021/11/16 12:08:26;;;;;;;79.90;26.02;;;;;;;4.57;100.00;102281.84;2614169;36;20038;-70
2021/11/16 12:32:56;;;;;;;77.20;27.52;;;;;;;4.75;100.00;102248.22;2610987;39;20405;-69
2021/11/16 14:53:54;;;;;;;70.13;24.65;;;;;;;4.51;100.00;102170.97;2612054;36;20313;-69
2021/11/16 14:59:11;;;;;;;65.28;24.45;;;;;;;4.59;100.00;102161.78;2614730;36;20034;-70
2021/11/16 15:04:25;;;;;;;69.90;23.50;;;;;;;4.49;100.00;102163.97;2615068;36;20117;-70
2021/11/16 15:13:46;;;;;;;61.35;22.95;;;;;;;4.57;100.00;102160.03;2614740;54;20010;-69
2021/11/16 15:16:23;;;;;;;55.72;21.70;;;;;;;4.56;100.00;102163.66;2615217;36;20057;-68
2021/11/16 15:19:20;;;;;;;58.42;21.40;;;;;;;4.52;100.00;102167.38;2615657;36;20057;-70
2021/11/16 15:22:03;;;;;;;63.35;22.77;;;;;;;4.51;100.00;102160.31;2615324;36;20034;-69
2021/11/16 15:30:17;;;;;;;61.20;23.75;;;;;;;4.46;100.00;102141.00;2614910;36;20505;-71
2021/11/16 15:33:04;;;;;;;66.80;24.60;;;;;;;4.42;100.00;102154.50;2615263;36;20052;-71
2021/11/16 15:35:55;;;;;;;64.60;23.58;;;;;;;4.43;100.00;102149.13;2614783;36;20522;-70
2021/11/16 15:38:51;;;;;;;67.10;24.08;;;;;;;4.38;100.00;102149.28;2614968;36;20308;-70
2021/11/16 15:41:33;;;;;;;64.80;24.20;;;;;;;4.30;100.00;102155.88;2612672;36;20034;-70
2021/11/16 15:50:05;;;;;;;81.95;29.42;;;;;;;4.24;100.00;102153.47;2611879;36;20126;-71
2021/11/16 15:52:55;;;;;;;75.10;26.45;;;;;;;4.37;100.00;102141.34;2612102;36;20515;-70
2021/11/16 15:58:15;;;;;;;81.20;28.48;;;;;;;4.35;100.00;102152.09;2610489;36;20039;-69
2021/11/16 16:00:54;;;;;;;79.60;28.95;;;;;;;4.25;100.00;102148.06;2612233;31;20165;-69
2021/11/16 16:03:25;;;;;;;;;;;;;;;4.20;100.00;102144.75;2611648;36;20030;-69
2021/11/16 16:06:07;;;;;;;83.55;28.80;;;;;;;4.26;100.00;102143.63;2611749;36;19947;-69
2021/11/16 16:08:46;;;;;;;91.65;31.48;;;;;;;4.26;100.00;102143.63;2611644;31;20081;-69
2021/11/16 16:11:17;;;;;;;83.50;27.77;;;;;;;4.27;100.00;102143.56;2611882;36;20050;-69
2021/11/16 16:13:45;;;;;;;94.80;31.52;;;;;;;4.25;100.00;102144.56;2611259;36;20942;-70
2021/11/16 16:20:03;;;;;;;84.68;28.65;;;;;;;4.36;100.00;102129.00;2610664;31;20506;-69
2021/11/16 16:26:01;;;;;;;92.93;32.35;;;;;;;4.25;100.00;102134.75;2610072;36;20176;-70
2021/11/16 16:34:21;;;;;;;84.05;27.30;;;;;;;4.31;100.00;102130.97;2608948;36;20022;-70
2021/11/16 16:36:51;;;;;;;75.30;24.95;;;;;;;4.27;100.00;102124.91;2610362;36;20623;-69
2021/11/16 16:39:57;;;;;;;74.38;25.58;;;;;;;4.37;100.00;102109.38;2610444;36;20060;-70
2021/11/16 16:42:25;;;;;;;73.95;25.10;;;;;;;4.34;100.00;102120.16;2611030;36;20133;-70
2021/11/16 16:45:18;;;;;;;67.88;23.20;;;;;;;4.24;100.00;102110.81;2611536;36;20537;-70
2021/11/16 16:54:06;;;;;;;81.47;25.55;;;;;;;4.11;100.00;102103.34;2609742;36;20446;-69
2021/11/16 16:56:39;;;;;;;70.00;24.10;;;;;;;4.13;100.00;102111.28;2628687;36;20046;-69
2021/11/16 17:11:25;;;;;;;83.17;26.43;;;;;;;4.12;100.00;102131.75;2609342;36;20643;-70
2021/11/16 17:25:40;;;;;;;86.93;28.05;;;;;;;4.26;100.00;102120.50;2608909;36;20030;-68
2021/11/16 19:54:28;;;;;;;94.70;32.28;;;;;;;4.21;100.00;102070.06;2613740;36;20038;-69
2021/11/16 19:56:58;;;;;;;99.85;31.40;;;;;;;4.18;100.00;102067.53;2616323;36;20068;-70
2021/11/16 20:37:03;;;;;;;102.18;31.13;;;;;;;4.22;100.00;102041.59;2608396;54;20093;-69
2021/11/16 21:42:02;;;;;;;87.22;27.05;;;;;;;4.30;100.00;102006.63;2612483;47;20042;-68
2021/11/16 22:32:32;;;;;;;94.82;26.77;;;;;;;4.39;100.00;101974.25;2612703;54;20141;-69
